createdAt,value
2023-01-10T00:01:08.601Z,66.90
2023-01-10T00:03:36.367Z,66.85
2023-01-10T00:06:03.787Z,65.84
2023-01-10T00:08:31.173Z,66.12
2023-01-10T00:10:58.892Z,66.47
2023-01-10T00:13:26.426Z,66.91
2023-01-10T00:15:55.230Z,67.19
2023-01-10T00:18:23.098Z,67.34
2023-01-10T00:20:50.597Z,68.13
2023-01-10T00:23:18.462Z,68.06
2023-01-10T00:25:46.766Z,67.15
2023-01-10T00:28:20.440Z,67.06
2023-01-10T00:31:00.913Z,67.15
2023-01-10T00:33:29.940Z,67.30
2023-01-10T00:35:58.184Z,68.04
2023-01-10T00:38:25.683Z,67.02
2023-01-10T00:40:53.138Z,66.90
2023-01-10T00:43:39.036Z,67.63
2023-01-10T00:46:06.441Z,67.49
2023-01-10T00:48:34.101Z,67.63
2023-01-10T00:51:01.488Z,68.19
2023-01-10T00:53:28.815Z,68.08
2023-01-10T00:55:56.951Z,68.74
2023-01-10T00:58:24.589Z,68.56
2023-01-10T01:00:52.161Z,68.26
2023-01-10T01:03:21.362Z,68.99
2023-01-10T01:05:49.200Z,70.19
2023-01-10T01:08:17.528Z,70.18
2023-01-10T01:10:45.617Z,70.75
2023-01-10T01:13:16.685Z,69.95
2023-01-10T01:15:44.430Z,70.15
2023-01-10T01:18:13.243Z,69.50
2023-01-10T01:20:41.271Z,70.49
2023-01-10T01:23:08.922Z,69.39
2023-01-10T01:25:36.529Z,68.60
2023-01-10T01:28:04.073Z,68.22
2023-01-10T01:30:31.500Z,69.65
2023-01-10T01:32:59.200Z,68.63
2023-01-10T01:35:26.789Z,68.70
2023-01-10T01:37:54.218Z,68.58
2023-01-10T01:40:23.075Z,69.41
2023-01-10T01:42:55.600Z,69.79
2023-01-10T01:45:23.234Z,70.96
2023-01-10T01:48:00.791Z,70.06
2023-01-10T01:51:05.453Z,70.31
2023-01-10T01:53:46.823Z,70.92
2023-01-10T01:56:18.882Z,71.64
2023-01-10T01:58:52.517Z,72.40
2023-01-10T02:01:21.986Z,71.83
2023-01-10T02:03:54.280Z,71.36
2023-01-10T02:06:23.774Z,71.06
2023-01-10T02:08:58.817Z,71.62
2023-01-10T02:11:26.452Z,71.57
2023-01-10T02:13:54.599Z,71.09
2023-01-10T02:16:21.970Z,71.50
2023-01-10T02:18:49.608Z,71.42
2023-01-10T02:21:35.162Z,71.77
2023-01-10T02:24:17.536Z,70.25
2023-01-10T02:27:02.892Z,70.76
2023-01-10T02:30:04.093Z,72.76
2023-01-10T02:32:48.016Z,72.55
2023-01-10T02:35:33.486Z,74.23
2023-01-10T02:38:16.128Z,74.86
2023-01-10T02:40:58.919Z,75.14
2023-01-10T02:43:30.112Z,73.78
2023-01-10T02:45:59.796Z,73.08
2023-01-10T02:48:27.176Z,74.82
2023-01-10T02:51:27.143Z,74.96
2023-01-10T02:54:08.227Z,74.53
2023-01-10T02:56:56.858Z,75.05
2023-01-10T02:59:39.487Z,74.20
2023-01-10T03:02:06.825Z,74.60
2023-01-10T03:05:03.163Z,74.34
2023-01-10T03:07:37.684Z,74.34
2023-01-10T03:10:05.295Z,74.30
2023-01-10T03:12:57.172Z,74.01
2023-01-10T03:15:28.203Z,73.38
2023-01-10T03:17:58.351Z,73.78
2023-01-10T03:20:26.925Z,74.80
2023-01-10T03:22:55.854Z,74.50
2023-01-10T03:25:26.130Z,73.14
2023-01-10T03:28:24.802Z,72.29
2023-01-10T03:30:55.493Z,72.48
2023-01-10T03:33:26.011Z,73.80
2023-01-10T03:36:20.777Z,71.93
2023-01-10T03:38:57.457Z,72.06
2023-01-10T03:41:38.289Z,73.03
2023-01-10T03:44:42.281Z,72.94
2023-01-10T03:47:35.828Z,73.02
2023-01-10T03:50:16.666Z,72.42
2023-01-10T03:52:44.342Z,72.89
2023-01-10T03:55:14.921Z,73.48
2023-01-10T03:57:48.921Z,73.39
2023-01-10T04:00:17.646Z,74.41
2023-01-10T04:02:45.629Z,73.59
2023-01-10T04:05:13.090Z,73.38
2023-01-10T04:07:40.424Z,72.57
2023-01-10T04:10:08.752Z,72.55
2023-01-10T04:12:36.438Z,73.40
2023-01-10T04:15:04.421Z,72.53
2023-01-10T04:17:32.080Z,72.04
2023-01-10T04:19:59.470Z,72.92
2023-01-10T04:22:27.160Z,73.36
2023-01-10T04:24:54.782Z,73.55
2023-01-10T04:27:22.296Z,74.06
2023-01-10T04:29:49.663Z,73.59
2023-01-10T04:32:17.383Z,72.70
2023-01-10T04:34:45.009Z,71.79
2023-01-10T04:37:12.480Z,71.20
2023-01-10T04:39:40.218Z,71.30
2023-01-10T04:42:07.641Z,70.51
2023-01-10T04:44:34.968Z,70.15
2023-01-10T04:47:02.970Z,69.94
2023-01-10T04:49:31.140Z,69.85
2023-01-10T04:51:58.669Z,69.55
2023-01-10T04:54:26.372Z,70.18
2023-01-10T04:56:53.723Z,69.97
2023-01-10T04:59:21.150Z,69.69
2023-01-10T05:01:48.870Z,69.54
2023-01-10T05:04:16.362Z,70.08
2023-01-10T05:06:43.731Z,69.95
2023-01-10T05:09:11.441Z,69.95
2023-01-10T05:11:38.830Z,68.98
2023-01-10T05:14:06.289Z,70.23
2023-01-10T05:16:33.941Z,71.31
2023-01-10T05:19:01.330Z,71.74
2023-01-10T05:21:28.854Z,72.64
2023-01-10T05:23:56.588Z,72.70
2023-01-10T05:26:24.081Z,74.01
2023-01-10T05:28:51.593Z,75.53
2023-01-10T05:31:20.070Z,74.59
2023-01-10T05:33:49.382Z,74.17
2023-01-10T05:36:17.715Z,74.31
2023-01-10T05:38:45.561Z,75.53
2023-01-10T05:41:13.045Z,74.86
2023-01-10T05:43:40.544Z,74.67
2023-01-10T05:46:08.299Z,74.01
2023-01-10T05:48:35.659Z,73.80
2023-01-10T05:51:03.738Z,73.40
2023-01-10T05:53:31.361Z,73.28
2023-01-10T05:56:00.795Z,74.06
2023-01-10T05:58:29.663Z,74.33
2023-01-10T06:00:57.990Z,73.93
2023-01-10T06:03:26.666Z,74.95
2023-01-10T06:05:54.979Z,73.93
2023-01-10T06:08:23.094Z,73.37
2023-01-10T06:10:51.134Z,74.16
2023-01-10T06:13:18.485Z,72.87
2023-01-10T06:15:46.090Z,73.71
2023-01-10T06:18:14.038Z,72.80
2023-01-10T06:20:42.566Z,72.18
2023-01-10T06:23:10.229Z,73.25
2023-01-10T06:25:40.406Z,71.95
2023-01-10T06:28:09.503Z,72.08
2023-01-10T06:30:37.236Z,74.44
2023-01-10T06:33:06.644Z,73.23
2023-01-10T06:35:34.212Z,73.43
2023-01-10T06:38:01.701Z,74.44
2023-01-10T06:40:29.421Z,74.34
2023-01-10T06:42:56.828Z,73.82
2023-01-10T06:45:24.310Z,73.95
2023-01-10T06:47:51.968Z,73.90
2023-01-10T06:50:19.339Z,73.82
2023-01-10T06:52:46.726Z,75.60
2023-01-10T06:55:14.357Z,75.52
2023-01-10T06:57:41.710Z,75.63
2023-01-10T07:00:10.471Z,74.87
2023-01-10T07:02:38.137Z,74.68
2023-01-10T07:05:05.888Z,73.59
2023-01-10T07:07:33.199Z,74.66
2023-01-10T07:10:00.931Z,74.42
2023-01-10T07:12:28.426Z,74.52
2023-01-10T07:14:55.932Z,74.40
2023-01-10T07:17:23.568Z,73.33
2023-01-10T07:19:50.967Z,72.28
2023-01-10T07:22:18.360Z,72.15
2023-01-10T07:24:46.053Z,72.01
2023-01-10T07:27:13.426Z,72.81
2023-01-10T07:29:40.752Z,72.38
2023-01-10T07:32:08.378Z,72.32
2023-01-10T07:34:35.737Z,72.54
2023-01-10T07:37:03.081Z,72.57
2023-01-10T07:39:30.739Z,72.83
2023-01-10T07:41:58.105Z,74.14
2023-01-10T07:44:25.563Z,74.21
2023-01-10T07:46:53.312Z,73.86
2023-01-10T07:49:20.698Z,74.32
2023-01-10T07:51:48.099Z,73.62
2023-01-10T07:54:15.767Z,73.45
2023-01-10T07:56:43.201Z,72.86
2023-01-10T07:59:10.661Z,73.53
2023-01-10T08:01:38.333Z,72.92
2023-01-10T08:04:05.956Z,72.74
2023-01-10T08:06:33.293Z,72.16
2023-01-10T08:09:00.776Z,71.96
2023-01-10T08:11:28.400Z,72.06
2023-01-10T08:13:55.787Z,72.14
2023-01-10T08:16:23.295Z,71.50
2023-01-10T08:18:51.099Z,70.83
2023-01-10T08:21:18.477Z,71.66
2023-01-10T08:23:45.808Z,70.69
2023-01-10T08:26:13.489Z,71.48
2023-01-10T08:28:40.869Z,71.24
2023-01-10T08:31:09.574Z,72.50
2023-01-10T08:33:38.916Z,72.15
2023-01-10T08:36:06.606Z,71.62
2023-01-10T08:38:33.953Z,71.09
2023-01-10T08:41:01.617Z,71.63
2023-01-10T08:43:28.937Z,71.54
2023-01-10T08:45:56.264Z,71.36
2023-01-10T08:48:24.060Z,70.76
2023-01-10T08:50:51.487Z,71.67
2023-01-10T08:53:19.067Z,70.99
2023-01-10T08:55:48.958Z,70.63
2023-01-10T08:58:16.496Z,71.74
2023-01-10T09:00:45.088Z,71.24
2023-01-10T09:03:12.807Z,70.46
2023-01-10T09:05:40.768Z,69.98
2023-01-10T09:08:08.235Z,70.67
2023-01-10T09:10:36.072Z,72.12
2023-01-10T09:13:04.917Z,72.26
2023-01-10T09:15:34.867Z,70.99
2023-01-10T09:18:04.950Z,71.19
2023-01-10T09:20:34.308Z,72.11
2023-01-10T09:23:10.031Z,72.02
2023-01-10T09:25:37.975Z,71.32
2023-01-10T09:28:06.246Z,73.43
2023-01-10T09:30:33.801Z,71.69
2023-01-10T09:33:01.833Z,70.85
2023-01-10T09:35:30.476Z,71.09
2023-01-10T09:38:00.983Z,70.78
2023-01-10T09:40:33.977Z,71.04
2023-01-10T09:43:08.976Z,71.04
2023-01-10T09:45:48.667Z,70.76
2023-01-10T09:48:49.468Z,70.17
2023-01-10T09:51:36.599Z,70.22
2023-01-10T09:54:11.970Z,69.83
2023-01-10T09:56:40.947Z,70.63
2023-01-10T09:59:17.728Z,71.57
2023-01-10T10:01:47.108Z,72.04
2023-01-10T10:04:35.360Z,71.02
2023-01-10T10:07:07.275Z,70.45
2023-01-10T10:09:35.391Z,70.23
2023-01-10T10:12:05.924Z,71.43
2023-01-10T10:14:55.184Z,70.55
2023-01-10T10:17:32.011Z,71.33
2023-01-10T10:20:11.619Z,70.43
2023-01-10T10:23:05.745Z,71.29
2023-01-10T10:25:42.101Z,71.23
2023-01-10T10:28:41.227Z,73.07
2023-01-10T10:31:47.676Z,71.99
2023-01-10T10:34:36.755Z,73.35
2023-01-10T10:37:11.406Z,72.05
2023-01-10T10:40:08.468Z,72.35
2023-01-10T10:42:38.808Z,72.34
2023-01-10T10:45:24.591Z,71.95
2023-01-10T10:48:00.415Z,71.89
2023-01-10T10:50:33.556Z,72.01
2023-01-10T10:53:02.276Z,72.46
2023-01-10T10:55:33.433Z,72.73
2023-01-10T10:58:02.529Z,72.34
2023-01-10T11:00:30.931Z,72.37
2023-01-10T11:03:28.932Z,72.90
2023-01-10T11:05:57.070Z,71.74
2023-01-10T11:08:25.905Z,73.17
2023-01-10T11:10:58.531Z,72.47
2023-01-10T11:13:35.664Z,72.05
2023-01-10T11:16:05.639Z,70.86
2023-01-10T11:18:33.654Z,71.76
2023-01-10T11:21:27.065Z,72.34
2023-01-10T11:23:56.031Z,72.02
2023-01-10T11:26:41.083Z,71.87
2023-01-10T11:29:15.310Z,71.17
2023-01-10T11:31:42.807Z,71.91
2023-01-10T11:34:37.890Z,71.94
2023-01-10T11:37:17.473Z,72.93
2023-01-10T11:39:45.132Z,71.79
2023-01-10T11:42:25.486Z,72.25
2023-01-10T11:44:53.149Z,73.21
2023-01-10T11:47:20.987Z,72.00
2023-01-10T11:49:49.563Z,73.92
2023-01-10T11:52:17.149Z,73.30
2023-01-10T11:54:44.719Z,73.53
2023-01-10T11:57:19.139Z,72.79
2023-01-10T12:00:00.315Z,73.28
2023-01-10T12:02:33.961Z,72.57
2023-01-10T12:05:04.900Z,72.04
2023-01-10T12:08:06.263Z,72.17
2023-01-10T12:10:34.800Z,72.84
2023-01-10T12:13:16.840Z,72.47
2023-01-10T12:15:46.932Z,73.02
2023-01-10T12:18:14.352Z,73.18
2023-01-10T12:20:50.030Z,73.74
2023-01-10T12:23:19.547Z,72.74
2023-01-10T12:25:49.113Z,72.92
2023-01-10T12:28:21.664Z,73.17
2023-01-10T12:30:52.919Z,72.34
2023-01-10T12:33:24.083Z,72.30
2023-01-10T12:36:10.171Z,72.72
2023-01-10T12:39:14.345Z,72.45
2023-01-10T12:42:00.248Z,73.76
2023-01-10T12:44:41.515Z,73.54
2023-01-10T12:47:23.628Z,76.47
2023-01-10T12:49:57.307Z,75.28
2023-01-10T12:52:31.717Z,73.23
2023-01-10T12:55:00.265Z,72.69
2023-01-10T12:57:34.936Z,71.56
2023-01-10T13:00:05.582Z,72.76
2023-01-10T13:02:45.288Z,73.15
2023-01-10T13:05:22.037Z,73.05
2023-01-10T13:07:50.375Z,73.42
2023-01-10T13:10:21.501Z,73.24
2023-01-10T13:13:14.933Z,73.67
2023-01-10T13:15:52.691Z,72.59
2023-01-10T13:18:29.444Z,72.59
2023-01-10T13:21:13.434Z,73.23
2023-01-10T13:23:51.566Z,72.49
2023-01-10T13:26:19.513Z,72.95
2023-01-10T13:28:58.722Z,71.95
2023-01-10T13:31:32.844Z,72.07
2023-01-10T13:34:07.142Z,71.89
2023-01-10T13:36:40.390Z,70.76
2023-01-10T13:39:21.004Z,70.42
2023-01-10T13:42:16.651Z,71.92
2023-01-10T13:45:02.630Z,71.09
2023-01-10T13:47:41.476Z,72.06
2023-01-10T13:50:37.833Z,72.05
2023-01-10T13:53:12.876Z,71.53
2023-01-10T13:55:42.447Z,71.61
2023-01-10T13:58:15.965Z,72.17
2023-01-10T14:01:16.304Z,71.83
2023-01-10T14:03:58.454Z,71.34
2023-01-10T14:06:28.851Z,73.00
2023-01-10T14:09:00.925Z,74.72
2023-01-10T14:11:48.933Z,73.20
2023-01-10T14:14:40.442Z,70.50
2023-01-10T14:17:31.579Z,70.88
2023-01-10T14:20:20.390Z,71.14
2023-01-10T14:23:03.370Z,69.83
2023-01-10T14:25:33.847Z,70.55
2023-01-10T14:28:02.009Z,71.05
2023-01-10T14:30:32.871Z,70.74
2023-01-10T14:33:04.794Z,71.43
2023-01-10T14:35:39.534Z,72.93
2023-01-10T14:38:08.141Z,71.89
2023-01-10T14:40:42.035Z,71.23
2023-01-10T14:43:14.082Z,70.38
2023-01-10T14:46:18.845Z,71.70
2023-01-10T14:48:51.179Z,71.22
2023-01-10T14:51:25.752Z,71.07
2023-01-10T14:53:57.463Z,74.24
2023-01-10T14:56:41.535Z,71.82
2023-01-10T14:59:30.245Z,71.36
2023-01-10T15:02:00.597Z,71.14
2023-01-10T15:04:30.792Z,70.65
2023-01-10T15:07:16.656Z,71.85
2023-01-10T15:09:51.820Z,71.63
2023-01-10T15:12:20.677Z,70.63
2023-01-10T15:14:49.764Z,70.25
2023-01-10T15:17:20.493Z,70.33
2023-01-10T15:19:51.053Z,70.76
2023-01-10T15:22:34.820Z,70.16
2023-01-10T15:25:08.168Z,69.93
2023-01-10T15:27:36.908Z,69.75
2023-01-10T15:30:08.657Z,69.52
2023-01-10T15:32:39.409Z,69.73
2023-01-10T15:35:08.879Z,69.97
2023-01-10T15:37:40.786Z,71.04
2023-01-10T15:40:22.018Z,71.39
2023-01-10T15:42:49.453Z,71.04
2023-01-10T15:45:37.551Z,70.82
2023-01-10T15:48:05.283Z,70.30
2023-01-10T15:50:38.738Z,69.84
2023-01-10T15:53:10.031Z,69.96
2023-01-10T15:55:39.861Z,69.63
2023-01-10T15:58:27.918Z,71.07
2023-01-10T16:00:56.743Z,69.72
2023-01-10T16:03:37.652Z,69.85
2023-01-10T16:06:09.753Z,70.46
2023-01-10T16:08:38.818Z,71.80
2023-01-10T16:11:38.285Z,71.20
2023-01-10T16:14:05.967Z,70.69
2023-01-10T16:16:33.533Z,70.81
2023-01-10T16:19:02.825Z,71.21
2023-01-10T16:21:36.845Z,70.97
2023-01-10T16:24:04.565Z,70.36
2023-01-10T16:26:33.299Z,69.53
2023-01-10T16:29:00.662Z,69.49
2023-01-10T16:31:28.164Z,69.43
2023-01-10T16:33:55.806Z,69.54
2023-01-10T16:36:23.194Z,69.56
2023-01-10T16:38:50.546Z,70.92
2023-01-10T16:41:36.924Z,69.18
2023-01-10T16:44:04.546Z,69.02
2023-01-10T16:46:32.402Z,68.79
2023-01-10T16:49:00.449Z,68.59
2023-01-10T16:51:30.270Z,68.87
2023-01-10T16:53:58.364Z,68.31
2023-01-10T16:56:28.092Z,68.09
2023-01-10T16:58:56.033Z,67.77
2023-01-10T17:01:26.687Z,66.73
2023-01-10T17:03:54.393Z,67.32
2023-01-10T17:06:21.985Z,66.90
2023-01-10T17:08:49.845Z,67.44
2023-01-10T17:11:20.620Z,66.90
2023-01-10T17:13:48.035Z,66.85
2023-01-10T17:16:19.776Z,66.11
2023-01-10T17:18:47.787Z,66.64
2023-01-10T17:21:17.667Z,66.80
2023-01-10T17:23:45.879Z,67.15
2023-01-10T17:26:16.051Z,66.17
2023-01-10T17:28:45.768Z,65.95
2023-01-10T17:31:13.440Z,66.72
2023-01-10T17:33:40.795Z,66.57
2023-01-10T17:36:08.744Z,65.97
2023-01-10T17:38:37.849Z,66.30
2023-01-10T17:41:07.264Z,66.29
2023-01-10T17:43:34.616Z,67.35
2023-01-10T17:46:05.540Z,67.37
2023-01-10T17:48:34.719Z,65.06
2023-01-10T17:51:03.436Z,64.64
2023-01-10T17:53:30.800Z,64.29
2023-01-10T17:56:00.070Z,63.65
2023-01-10T17:58:28.804Z,64.55
2023-01-10T18:00:56.366Z,64.50
2023-01-10T18:03:25.349Z,65.52
2023-01-10T18:05:54.692Z,64.82
2023-01-10T18:08:22.877Z,65.28
2023-01-10T18:10:51.353Z,64.92
2023-01-10T18:13:20.669Z,64.68
2023-01-10T18:15:49.103Z,64.64
2023-01-10T18:18:16.900Z,63.94
2023-01-10T18:20:45.708Z,64.30
2023-01-10T18:23:23.407Z,65.26
2023-01-10T18:25:51.942Z,65.18
2023-01-10T18:28:23.521Z,65.74
2023-01-10T18:30:56.844Z,64.94
2023-01-10T18:33:24.305Z,64.26
2023-01-10T18:35:51.909Z,65.29
2023-01-10T18:38:19.602Z,64.39
2023-01-10T18:40:47.395Z,64.06
2023-01-10T18:43:15.732Z,64.41
2023-01-10T18:45:45.219Z,64.35
2023-01-10T18:48:16.175Z,63.83
2023-01-10T18:50:44.596Z,63.81
2023-01-10T18:53:11.947Z,64.08
2023-01-10T18:55:40.094Z,63.12
2023-01-10T18:58:09.288Z,63.35
2023-01-10T19:00:36.730Z,63.97
2023-01-10T19:03:04.590Z,63.77
2023-01-10T19:05:32.220Z,63.77
2023-01-10T19:07:59.777Z,62.44
2023-01-10T19:10:27.149Z,63.38
2023-01-10T19:12:54.928Z,62.06
2023-01-10T19:15:22.306Z,62.18
2023-01-10T19:17:49.669Z,62.79
2023-01-10T19:20:17.621Z,63.11
2023-01-10T19:22:46.848Z,62.66
2023-01-10T19:25:14.867Z,62.22
2023-01-10T19:27:42.589Z,61.94
2023-01-10T19:30:10.869Z,62.32
2023-01-10T19:32:38.445Z,62.99
2023-01-10T19:35:06.929Z,62.77
2023-01-10T19:37:34.365Z,64.02
2023-01-10T19:40:01.852Z,63.75
2023-01-10T19:42:29.476Z,62.64
2023-01-10T19:44:56.800Z,63.68
2023-01-10T19:47:24.437Z,64.42
2023-01-10T19:49:52.266Z,65.22
2023-01-10T19:52:19.628Z,63.76
2023-01-10T19:54:47.590Z,64.43
2023-01-10T19:57:15.274Z,64.66
2023-01-10T19:59:42.749Z,64.16
2023-01-10T20:02:12.860Z,64.65
2023-01-10T20:04:40.544Z,65.14
2023-01-10T20:07:07.995Z,66.12
2023-01-10T20:09:35.498Z,66.83
2023-01-10T20:12:03.144Z,67.90
2023-01-10T20:14:30.657Z,67.37
2023-01-10T20:16:58.037Z,66.58
2023-01-10T20:19:25.678Z,66.17
2023-01-10T20:21:53.115Z,65.47
2023-01-10T20:24:21.034Z,64.89
2023-01-10T20:26:49.862Z,65.60
2023-01-10T20:29:18.632Z,65.34
2023-01-10T20:31:48.091Z,65.67
2023-01-10T20:34:15.891Z,65.84
2023-01-10T20:36:43.296Z,66.10
2023-01-10T20:39:10.716Z,64.97
2023-01-10T20:41:38.437Z,64.80
2023-01-10T20:44:05.807Z,65.14
2023-01-10T20:46:34.014Z,64.78
2023-01-10T20:49:03.092Z,65.26
2023-01-10T20:51:32.910Z,63.98
2023-01-10T20:54:00.384Z,64.12
2023-01-10T20:56:30.107Z,64.52
2023-01-10T20:59:00.030Z,64.08
2023-01-10T21:01:34.497Z,65.14
2023-01-10T21:04:04.857Z,64.85
2023-01-10T21:06:33.339Z,64.28
2023-01-10T21:09:00.952Z,63.70
2023-01-10T21:11:28.462Z,64.30
2023-01-10T21:13:56.173Z,65.20
2023-01-10T21:16:24.074Z,64.25
2023-01-10T21:18:51.608Z,64.11
2023-01-10T21:21:22.622Z,64.92
2023-01-10T21:23:53.307Z,65.41
2023-01-10T21:26:22.037Z,65.54
2023-01-10T21:28:49.701Z,64.62
2023-01-10T21:31:19.595Z,64.08
2023-01-10T21:33:47.999Z,65.11
2023-01-10T21:36:15.471Z,64.69
2023-01-10T21:38:43.737Z,64.68
2023-01-10T21:41:14.356Z,63.86
2023-01-10T21:43:46.134Z,64.49
2023-01-10T21:46:13.822Z,64.39
2023-01-10T21:48:41.256Z,65.13
2023-01-10T21:51:08.759Z,64.98
2023-01-10T21:53:37.062Z,65.26
2023-01-10T21:56:04.607Z,66.02
2023-01-10T21:58:31.925Z,65.57
2023-01-10T22:00:59.611Z,65.32
2023-01-10T22:03:27.458Z,64.94
2023-01-10T22:05:54.845Z,64.95
2023-01-10T22:08:22.336Z,64.15
2023-01-10T22:10:50.023Z,64.63
2023-01-10T22:13:18.107Z,64.85
2023-01-10T22:15:45.507Z,64.74
2023-01-10T22:18:13.119Z,63.46
2023-01-10T22:20:43.936Z,63.58
2023-01-10T22:23:11.282Z,64.61
2023-01-10T22:25:38.868Z,64.34
2023-01-10T22:28:06.300Z,64.78
2023-01-10T22:30:33.691Z,65.20
2023-01-10T22:33:01.738Z,65.16
2023-01-10T22:35:29.099Z,63.99
2023-01-10T22:37:56.694Z,65.58
2023-01-10T22:40:24.442Z,64.49
2023-01-10T22:42:54.747Z,64.79
2023-01-10T22:45:22.272Z,64.39
2023-01-10T22:47:50.246Z,65.92
2023-01-10T22:50:18.268Z,65.01
2023-01-10T22:52:49.505Z,65.58
2023-01-10T22:55:18.273Z,66.05
2023-01-10T22:57:47.623Z,65.73
2023-01-10T23:00:15.513Z,65.94
2023-01-10T23:02:43.267Z,66.16
2023-01-10T23:05:10.762Z,66.92
2023-01-10T23:07:38.243Z,66.38
2023-01-10T23:10:08.456Z,66.63
2023-01-10T23:12:39.520Z,65.11
2023-01-10T23:15:07.690Z,66.15
2023-01-10T23:17:35.071Z,66.89
2023-01-10T23:20:02.640Z,66.81
2023-01-10T23:22:30.338Z,67.15
2023-01-10T23:24:57.697Z,67.13
2023-01-10T23:27:25.037Z,68.45
2023-01-10T23:29:52.883Z,68.07
2023-01-10T23:32:20.234Z,67.87
2023-01-10T23:34:47.589Z,69.08
2023-01-10T23:37:15.247Z,68.95
2023-01-10T23:39:42.601Z,68.43
2023-01-10T23:42:09.999Z,68.53
2023-01-10T23:44:37.640Z,69.65
2023-01-10T23:47:05.038Z,70.20
2023-01-10T23:49:32.439Z,69.23
2023-01-10T23:52:00.133Z,68.19
2023-01-10T23:54:27.617Z,68.46
2023-01-10T23:56:55.091Z,68.90
2023-01-10T23:59:22.743Z,69.01
